createdAt,value
2022-09-18T00:00:31.576Z,102429.00
2022-09-18T00:02:59.659Z,102437.94
2022-09-18T00:05:27.697Z,102408.25
2022-09-18T00:07:55.759Z,102419.25
2022-09-18T00:10:25.606Z,102392.59
2022-09-18T00:12:53.671Z,102441.66
2022-09-18T00:15:21.662Z,102414.91
2022-09-18T00:17:49.679Z,102433.78
2022-09-18T00:20:17.838Z,102396.47
2022-09-18T00:22:47.153Z,102442.53
2022-09-18T00:25:15.292Z,102434.66
2022-09-18T00:27:44.731Z,102430.88
2022-09-18T00:30:13.549Z,102418.53
2022-09-18T00:32:41.877Z,102425.66
2022-09-18T00:35:10.506Z,102431.81
2022-09-18T00:37:38.559Z,102434.16
2022-09-18T00:40:07.150Z,102434.00
2022-09-18T00:42:35.234Z,102428.47
2022-09-18T00:45:04.947Z,102415.84
2022-09-18T00:47:34.057Z,102420.22
2022-09-18T00:50:06.039Z,102430.66
2022-09-18T00:52:41.065Z,102425.53
2022-09-18T00:55:10.320Z,102422.16
2022-09-18T00:57:41.347Z,102427.72
2022-09-18T01:00:14.466Z,102411.50
2022-09-18T01:02:43.810Z,102428.34
2022-09-18T01:05:12.789Z,102422.41
2022-09-18T01:07:50.865Z,102421.16
2022-09-18T01:10:27.183Z,102416.75
2022-09-18T01:12:57.078Z,102396.13
2022-09-18T01:15:31.491Z,102419.41
2022-09-18T01:18:03.777Z,102407.78
2022-09-18T01:20:48.130Z,102413.44
2022-09-18T01:23:28.746Z,102414.53
2022-09-18T01:26:01.405Z,102410.44
2022-09-18T01:28:34.095Z,102402.94
2022-09-18T01:31:05.708Z,102404.13
2022-09-18T01:33:51.150Z,102413.22
2022-09-18T01:36:20.027Z,102415.03
2022-09-18T01:38:49.562Z,102417.09
2022-09-18T01:41:20.030Z,102413.34
2022-09-18T01:43:49.842Z,102404.28
2022-09-18T01:46:19.692Z,102407.78
2022-09-18T01:48:50.466Z,102416.63
2022-09-18T01:51:20.621Z,102403.22
2022-09-18T01:53:49.866Z,102398.13
2022-09-18T01:56:18.384Z,102391.56
2022-09-18T01:58:46.475Z,102392.03
2022-09-18T02:01:17.089Z,102390.97
2022-09-18T02:03:47.578Z,102405.13
2022-09-18T02:06:17.840Z,102395.91
2022-09-18T02:08:47.890Z,102398.28
2022-09-18T02:11:17.587Z,102389.44
2022-09-18T02:13:47.531Z,102400.81
2022-09-18T02:16:19.861Z,102375.88
2022-09-18T02:18:49.876Z,102398.06
2022-09-18T02:21:23.402Z,102390.19
2022-09-18T02:23:51.478Z,102399.19
2022-09-18T02:26:19.479Z,102392.91
2022-09-18T02:28:48.168Z,102383.34
2022-09-18T02:31:18.684Z,102392.06
2022-09-18T02:33:48.627Z,102395.06
2022-09-18T02:36:46.270Z,102393.97
2022-09-18T02:39:22.556Z,102400.81
2022-09-18T02:41:52.561Z,102408.81
2022-09-18T02:44:21.891Z,102381.53
2022-09-18T02:46:56.518Z,102384.94
2022-09-18T02:49:32.752Z,102388.38
2022-09-18T02:52:03.700Z,102386.91
2022-09-18T02:54:35.352Z,102382.06
2022-09-18T02:57:04.250Z,102391.78
2022-09-18T02:59:33.072Z,102404.84
2022-09-18T03:02:01.235Z,102400.50
2022-09-18T03:04:33.124Z,102402.06
2022-09-18T03:07:03.725Z,102405.91
2022-09-18T03:09:34.947Z,102402.84
2022-09-18T03:12:03.291Z,102402.00
2022-09-18T03:14:37.824Z,102398.28
2022-09-18T03:17:06.062Z,102386.91
2022-09-18T03:19:35.416Z,102407.66
2022-09-18T03:22:04.251Z,102376.81
2022-09-18T03:24:35.961Z,102396.88
2022-09-18T03:27:05.538Z,102376.63
2022-09-18T03:29:33.603Z,102394.88
2022-09-18T03:32:03.107Z,102377.78
2022-09-18T03:34:38.735Z,102388.06
2022-09-18T03:37:06.842Z,102387.34
2022-09-18T03:39:35.137Z,102383.19
2022-09-18T03:42:04.975Z,102377.81
2022-09-18T03:44:33.258Z,102372.19
2022-09-18T03:47:04.878Z,102382.38
2022-09-18T03:49:32.955Z,102391.28
2022-09-18T03:52:02.607Z,102386.00
2022-09-18T03:54:35.849Z,102377.31
2022-09-18T03:57:17.964Z,102365.41
2022-09-18T04:00:09.582Z,102372.63
2022-09-18T04:02:43.382Z,102376.25
2022-09-18T04:05:43.834Z,102377.53
2022-09-18T04:08:31.430Z,102370.06
2022-09-18T04:11:25.242Z,102375.28
2022-09-18T04:13:54.068Z,102377.44
2022-09-18T04:16:22.923Z,102363.31
2022-09-18T04:18:52.906Z,102370.41
2022-09-18T04:21:23.028Z,102369.75
2022-09-18T04:23:54.114Z,102381.31
2022-09-18T04:26:22.142Z,102386.53
2022-09-18T04:28:55.233Z,102379.63
2022-09-18T04:31:23.408Z,102380.47
2022-09-18T04:33:51.552Z,102386.00
2022-09-18T04:36:23.418Z,102383.66
2022-09-18T04:38:53.239Z,102376.69
2022-09-18T04:41:21.523Z,102399.78
2022-09-18T04:43:49.782Z,102388.13
2022-09-18T04:46:19.850Z,102393.94
2022-09-18T04:48:49.318Z,102407.78
2022-09-18T04:51:18.616Z,102398.72
2022-09-18T04:53:49.341Z,102399.56
2022-09-18T04:56:19.214Z,102398.09
2022-09-18T04:58:51.130Z,102389.41
2022-09-18T05:01:19.234Z,102409.38
2022-09-18T05:03:47.588Z,102408.72
2022-09-18T05:06:26.862Z,102409.28
2022-09-18T05:08:54.932Z,102419.91
2022-09-18T05:11:28.248Z,102422.53
2022-09-18T05:13:56.983Z,102413.84
2022-09-18T05:16:27.132Z,102406.28
2022-09-18T05:19:15.498Z,102413.38
2022-09-18T05:21:43.543Z,102399.97
2022-09-18T05:24:14.092Z,102409.34
2022-09-18T05:26:44.897Z,102417.59
2022-09-18T05:29:13.132Z,102416.03
2022-09-18T05:31:43.116Z,102406.56
2022-09-18T05:34:11.214Z,102415.81
2022-09-18T05:36:41.442Z,102416.56
2022-09-18T05:39:12.120Z,102423.91
2022-09-18T05:41:44.470Z,102416.38
2022-09-18T05:44:13.541Z,102418.91
2022-09-18T05:46:41.640Z,102383.75
2022-09-18T05:49:09.733Z,102412.34
2022-09-18T05:51:39.082Z,102411.50
2022-09-18T05:54:07.246Z,102416.38
2022-09-18T05:56:41.681Z,102428.56
2022-09-18T05:59:11.242Z,102419.13
2022-09-18T06:01:41.661Z,102417.44
2022-09-18T06:04:22.151Z,102428.06
2022-09-18T06:06:54.874Z,102425.06
2022-09-18T06:09:22.946Z,102418.50
2022-09-18T06:11:51.055Z,102417.44
2022-09-18T06:14:20.914Z,102432.91
2022-09-18T06:16:49.333Z,102418.69
2022-09-18T06:19:17.922Z,102427.84
2022-09-18T06:21:48.960Z,102432.50
2022-09-18T06:24:19.411Z,102436.53
2022-09-18T06:27:07.673Z,102431.41
2022-09-18T06:29:37.349Z,102436.81
2022-09-18T06:32:10.901Z,102445.06
2022-09-18T06:34:40.623Z,102437.72
2022-09-18T06:37:11.294Z,102443.22
2022-09-18T06:39:45.302Z,102442.78
2022-09-18T06:42:29.133Z,102436.63
2022-09-18T06:45:18.967Z,102432.59
2022-09-18T06:47:54.158Z,102439.81
2022-09-18T06:50:23.869Z,102437.16
2022-09-18T06:52:51.956Z,102444.94
2022-09-18T06:55:20.518Z,102396.19
2022-09-18T06:57:54.658Z,102446.69
2022-09-18T07:00:24.234Z,102455.50
2022-09-18T07:02:57.640Z,102454.25
2022-09-18T07:05:45.423Z,102452.91
2022-09-18T07:08:22.042Z,102448.53
2022-09-18T07:10:54.429Z,102453.41
2022-09-18T07:13:23.326Z,102462.31
2022-09-18T07:15:52.858Z,102469.94
2022-09-18T07:18:21.305Z,102448.38
2022-09-18T07:20:49.380Z,102461.47
2022-09-18T07:23:33.200Z,102461.53
2022-09-18T07:26:01.630Z,102465.69
2022-09-18T07:28:29.770Z,102459.69
2022-09-18T07:31:07.200Z,102432.28
2022-09-18T07:33:37.283Z,102470.50
2022-09-18T07:36:06.581Z,102472.22
2022-09-18T07:38:37.546Z,102467.75
2022-09-18T07:41:06.762Z,102474.31
2022-09-18T07:43:35.441Z,102466.59
2022-09-18T07:46:03.649Z,102470.50
2022-09-18T07:48:36.144Z,102469.75
2022-09-18T07:51:18.829Z,102469.28
2022-09-18T07:53:50.122Z,102474.41
2022-09-18T07:56:27.082Z,102456.63
2022-09-18T07:58:56.382Z,102469.72
2022-09-18T08:01:28.421Z,102474.00
2022-09-18T08:04:00.604Z,102466.63
2022-09-18T08:06:37.501Z,102470.19
2022-09-18T08:09:27.718Z,102465.47
2022-09-18T08:12:12.374Z,102475.53
2022-09-18T08:15:03.784Z,102463.09
2022-09-18T08:17:45.832Z,102465.25
2022-09-18T08:20:31.691Z,102469.81
2022-09-18T08:23:15.802Z,102465.59
2022-09-18T08:25:44.388Z,102479.06
2022-09-18T08:28:12.660Z,102473.44
2022-09-18T08:30:50.763Z,102473.19
2022-09-18T08:33:19.393Z,102480.84
2022-09-18T08:35:48.981Z,102475.09
2022-09-18T08:38:25.116Z,102467.34
2022-09-18T08:41:38.799Z,102479.53
2022-09-18T08:44:09.476Z,102475.94
2022-09-18T08:46:41.124Z,102479.34
2022-09-18T08:49:21.720Z,102485.66
2022-09-18T08:52:04.789Z,102449.56
2022-09-18T08:54:43.507Z,102486.75
2022-09-18T08:57:18.769Z,102477.84
2022-09-18T09:00:23.346Z,102487.97
2022-09-18T09:03:02.844Z,102476.31
2022-09-18T09:05:32.916Z,102482.94
2022-09-18T09:08:28.733Z,102479.28
2022-09-18T09:11:00.417Z,102482.91
2022-09-18T09:14:10.695Z,102492.91
2022-09-18T09:16:43.417Z,102496.81
2022-09-18T09:19:31.460Z,102492.97
2022-09-18T09:22:05.644Z,102500.59
2022-09-18T09:24:38.099Z,102496.56
2022-09-18T09:27:13.299Z,102503.50
2022-09-18T09:30:14.495Z,102499.88
2022-09-18T09:33:16.813Z,102486.34
2022-09-18T09:36:09.409Z,102491.91
2022-09-18T09:38:54.005Z,102486.66
2022-09-18T09:41:29.008Z,102464.94
2022-09-18T09:44:02.317Z,102475.88
2022-09-18T09:46:41.950Z,102472.03
2022-09-18T09:49:12.285Z,102470.56
2022-09-18T09:51:44.640Z,102482.38
2022-09-18T09:54:12.798Z,102485.75
2022-09-18T09:56:44.372Z,102466.22
2022-09-18T09:59:17.720Z,102458.94
2022-09-18T10:02:34.395Z,102452.63
2022-09-18T10:05:07.701Z,102468.22
2022-09-18T10:07:38.244Z,102449.25
2022-09-18T10:10:08.527Z,102463.66
2022-09-18T10:12:42.385Z,102464.56
2022-09-18T10:15:17.407Z,102465.41
2022-09-18T10:17:46.988Z,102459.91
2022-09-18T10:20:16.614Z,102466.78
2022-09-18T10:22:44.894Z,102463.00
2022-09-18T10:25:17.286Z,102465.97
2022-09-18T10:27:47.274Z,102453.75
2022-09-18T10:30:16.450Z,102443.31
2022-09-18T10:32:51.004Z,102455.75
2022-09-18T10:35:41.476Z,102463.19
2022-09-18T10:38:33.537Z,102461.19
2022-09-18T10:41:28.696Z,102457.50
2022-09-18T10:44:00.366Z,102453.13
2022-09-18T10:46:31.602Z,102468.28
2022-09-18T10:49:00.710Z,102458.50
2022-09-18T10:51:29.419Z,102456.81
2022-09-18T10:54:04.106Z,102452.13
2022-09-18T10:56:51.717Z,102451.72
2022-09-18T10:59:36.674Z,102453.47
2022-09-18T11:02:06.313Z,102454.63
2022-09-18T11:04:36.649Z,102456.03
2022-09-18T11:07:07.610Z,102461.44
2022-09-18T11:09:38.747Z,102451.50
2022-09-18T11:12:15.689Z,102438.13
2022-09-18T11:14:48.161Z,102440.97
2022-09-18T11:17:26.623Z,102440.31
2022-09-18T11:19:56.404Z,102436.28
2022-09-18T11:22:41.629Z,102429.25
2022-09-18T11:25:38.873Z,102428.84
2022-09-18T11:28:23.255Z,102424.75
2022-09-18T11:31:00.419Z,102433.91
2022-09-18T11:33:30.070Z,102441.38
2022-09-18T11:36:02.212Z,102439.16
2022-09-18T11:38:31.643Z,102441.50
2022-09-18T11:41:04.345Z,102441.84
2022-09-18T11:43:39.482Z,102432.44
2022-09-18T11:46:14.740Z,102432.25
2022-09-18T11:48:45.090Z,102421.59
2022-09-18T11:51:16.657Z,102444.81
2022-09-18T11:53:47.400Z,102442.09
2022-09-18T11:56:17.274Z,102432.53
2022-09-18T11:58:48.499Z,102433.50
2022-09-18T12:01:24.575Z,102439.84
2022-09-18T12:03:55.082Z,102436.09
2022-09-18T12:06:27.531Z,102443.50
2022-09-18T12:08:56.626Z,102449.50
2022-09-18T12:11:32.501Z,102446.41
2022-09-18T12:14:05.333Z,102435.75
2022-09-18T12:16:45.788Z,102429.63
2022-09-18T12:19:18.202Z,102437.78
2022-09-18T12:21:55.002Z,102421.56
2022-09-18T12:24:24.027Z,102440.13
2022-09-18T12:27:10.055Z,102430.53
2022-09-18T12:29:46.452Z,102435.59
2022-09-18T12:32:23.314Z,102428.88
2022-09-18T12:34:55.248Z,102426.72
2022-09-18T12:37:40.082Z,102431.16
2022-09-18T12:40:42.076Z,102426.22
2022-09-18T12:43:21.954Z,102404.16
2022-09-18T12:46:23.368Z,102422.25
2022-09-18T12:49:12.812Z,102423.66
2022-09-18T12:51:43.286Z,102430.69
2022-09-18T12:54:33.611Z,102437.16
2022-09-18T12:57:14.750Z,102436.69
2022-09-18T12:59:55.165Z,102427.91
2022-09-18T13:02:28.488Z,102433.78
2022-09-18T13:04:59.807Z,102436.03
2022-09-18T13:07:29.715Z,102433.97
2022-09-18T13:10:00.406Z,102431.47
2022-09-18T13:12:32.143Z,102443.31
2022-09-18T13:15:01.135Z,102432.22
2022-09-18T13:17:32.567Z,102433.56
2022-09-18T13:20:06.657Z,102439.63
2022-09-18T13:22:36.373Z,102433.22
2022-09-18T13:25:04.557Z,102431.59
2022-09-18T13:27:32.716Z,102431.19
2022-09-18T13:30:10.806Z,102418.63
2022-09-18T13:32:40.947Z,102423.16
2022-09-18T13:35:20.667Z,102430.72
2022-09-18T13:37:49.060Z,102421.81
2022-09-18T13:40:28.673Z,102421.28
2022-09-18T13:42:58.356Z,102417.66
2022-09-18T13:45:27.134Z,102415.97
2022-09-18T13:48:03.664Z,102412.69
2022-09-18T13:50:33.307Z,102401.50
2022-09-18T13:53:02.021Z,102414.03
2022-09-18T13:55:52.721Z,102396.19
2022-09-18T13:58:50.096Z,102415.41
2022-09-18T14:01:59.999Z,102407.84
2022-09-18T14:04:50.580Z,102402.50
2022-09-18T14:07:49.560Z,102413.75
2022-09-18T14:10:37.596Z,102405.03
2022-09-18T14:13:33.916Z,102389.63
2022-09-18T14:16:06.012Z,102399.41
2022-09-18T14:18:36.643Z,102395.31
2022-09-18T14:21:24.685Z,102402.16
2022-09-18T14:24:25.415Z,102393.69
2022-09-18T14:27:23.164Z,102392.44
2022-09-18T14:29:55.093Z,102390.13
2022-09-18T14:32:24.663Z,102391.25
2022-09-18T14:34:54.830Z,102381.81
2022-09-18T14:37:27.930Z,102400.94
2022-09-18T14:39:58.675Z,102391.81
2022-09-18T14:42:33.266Z,102403.44
2022-09-18T14:45:15.539Z,102394.69
2022-09-18T14:47:44.742Z,102393.31
2022-09-18T14:50:33.861Z,102390.56
2022-09-18T14:53:03.618Z,102396.19
2022-09-18T14:55:35.225Z,102387.31
2022-09-18T14:58:05.754Z,102396.91
2022-09-18T15:00:34.709Z,102387.78
2022-09-18T15:03:04.926Z,102374.00
2022-09-18T15:05:34.082Z,102394.53
2022-09-18T15:08:03.770Z,102394.69
2022-09-18T15:10:34.895Z,102368.44
2022-09-18T15:13:04.454Z,102384.28
2022-09-18T15:15:34.221Z,102384.34
2022-09-18T15:18:02.650Z,102375.22
2022-09-18T15:20:31.061Z,102379.91
2022-09-18T15:22:59.171Z,102363.81
2022-09-18T15:25:29.847Z,102379.66
2022-09-18T15:28:02.818Z,102363.72
2022-09-18T15:30:30.903Z,102374.78
2022-09-18T15:33:00.186Z,102353.72
2022-09-18T15:35:29.673Z,102344.13
2022-09-18T15:38:02.846Z,102366.56
2022-09-18T15:40:33.332Z,102363.59
2022-09-18T15:43:03.994Z,102381.16
2022-09-18T15:45:32.717Z,102359.97
2022-09-18T15:48:01.741Z,102375.16
2022-09-18T15:50:40.498Z,102374.38
2022-09-18T15:53:23.524Z,102369.38
2022-09-18T15:55:56.698Z,102372.97
2022-09-18T15:58:37.074Z,102352.97
2022-09-18T16:01:06.117Z,102377.56
2022-09-18T16:03:34.557Z,102366.66
2022-09-18T16:06:05.321Z,102376.19
2022-09-18T16:08:34.191Z,102373.34
2022-09-18T16:11:02.244Z,102368.31
2022-09-18T16:13:35.417Z,102366.91
2022-09-18T16:16:25.211Z,102362.19
2022-09-18T16:18:56.242Z,102368.06
2022-09-18T16:21:25.690Z,102375.44
2022-09-18T16:23:55.299Z,102375.44
2022-09-18T16:26:26.836Z,102362.13
2022-09-18T16:28:57.084Z,102371.69
2022-09-18T16:31:26.137Z,102384.75
2022-09-18T16:33:57.292Z,102368.88
2022-09-18T16:36:27.981Z,102364.47
2022-09-18T16:38:56.094Z,102377.34
2022-09-18T16:41:24.109Z,102381.97
2022-09-18T16:43:53.926Z,102374.41
2022-09-18T16:46:23.831Z,102376.31
2022-09-18T16:48:52.127Z,102378.34
2022-09-18T16:51:21.942Z,102380.59
2022-09-18T16:53:50.029Z,102369.03
2022-09-18T16:56:18.856Z,102371.97
2022-09-18T16:58:47.049Z,102368.53
2022-09-18T17:01:15.704Z,102368.28
2022-09-18T17:03:45.110Z,102379.66
2022-09-18T17:06:17.079Z,102379.78
2022-09-18T17:08:46.947Z,102378.78
2022-09-18T17:11:15.003Z,102380.00
2022-09-18T17:13:43.207Z,102382.38
2022-09-18T17:16:11.221Z,102394.22
2022-09-18T17:18:39.323Z,102388.13
2022-09-18T17:21:08.815Z,102382.66
2022-09-18T17:23:37.056Z,102393.28
2022-09-18T17:26:06.540Z,102391.19
2022-09-18T17:28:34.629Z,102383.81
2022-09-18T17:31:09.591Z,102387.91
2022-09-18T17:33:37.717Z,102386.69
2022-09-18T17:36:06.394Z,102385.91
2022-09-18T17:38:36.123Z,102388.50
2022-09-18T17:41:05.264Z,102374.16
2022-09-18T17:43:33.341Z,102380.31
2022-09-18T17:46:02.062Z,102377.00
2022-09-18T17:48:31.359Z,102373.28
2022-09-18T17:50:59.521Z,102367.75
2022-09-18T17:53:27.640Z,102379.44
2022-09-18T17:55:57.613Z,102380.31
2022-09-18T17:58:27.956Z,102387.75
2022-09-18T18:00:56.378Z,102388.97
2022-09-18T18:03:24.722Z,102378.84
2022-09-18T18:05:53.411Z,102390.03
2022-09-18T18:08:21.405Z,102387.56
2022-09-18T18:10:49.418Z,102364.81
2022-09-18T18:13:19.069Z,102377.84
2022-09-18T18:15:48.137Z,102390.19
2022-09-18T18:18:16.233Z,102386.94
2022-09-18T18:20:50.789Z,102387.63
2022-09-18T18:23:18.888Z,102368.91
2022-09-18T18:25:47.195Z,102380.28
2022-09-18T18:28:15.376Z,102385.66
2022-09-18T18:30:45.454Z,102395.31
2022-09-18T18:33:13.543Z,102387.75
2022-09-18T18:35:41.728Z,102391.47
2022-09-18T18:38:10.095Z,102390.53
2022-09-18T18:40:38.910Z,102382.16
2022-09-18T18:43:07.120Z,102396.16
2022-09-18T18:45:37.495Z,102391.97
2022-09-18T18:48:09.817Z,102403.91
2022-09-18T18:50:42.699Z,102407.72
2022-09-18T18:53:11.203Z,102410.44
2022-09-18T18:55:39.177Z,102412.03
2022-09-18T18:58:07.257Z,102385.44
2022-09-18T19:00:36.387Z,102419.53
2022-09-18T19:03:04.489Z,102426.59
2022-09-18T19:05:35.126Z,102434.38
2022-09-18T19:08:03.477Z,102432.56
2022-09-18T19:10:32.002Z,102436.78
2022-09-18T19:13:01.970Z,102448.75
2022-09-18T19:15:30.053Z,102440.47
2022-09-18T19:18:01.901Z,102451.03
2022-09-18T19:20:30.406Z,102444.91
2022-09-18T19:22:59.905Z,102451.66
2022-09-18T19:25:28.134Z,102453.94
2022-09-18T19:27:56.677Z,102445.75
2022-09-18T19:30:25.964Z,102446.84
2022-09-18T19:32:56.829Z,102455.59
2022-09-18T19:35:24.893Z,102462.06
2022-09-18T19:37:52.871Z,102441.44
2022-09-18T19:40:22.587Z,102463.44
2022-09-18T19:42:55.580Z,102465.53
2022-09-18T19:45:25.097Z,102465.09
2022-09-18T19:47:53.118Z,102464.13
2022-09-18T19:50:25.186Z,102444.88
2022-09-18T19:52:53.282Z,102472.81
2022-09-18T19:55:22.767Z,102468.00
2022-09-18T19:57:50.950Z,102456.28
2022-09-18T20:00:19.218Z,102473.63
2022-09-18T20:02:47.644Z,102477.44
2022-09-18T20:05:15.874Z,102484.13
2022-09-18T20:07:43.922Z,102479.28
2022-09-18T20:10:13.429Z,102454.97
2022-09-18T20:12:43.272Z,102483.16
2022-09-18T20:15:12.254Z,102470.69
2022-09-18T20:17:40.289Z,102483.13
2022-09-18T20:20:10.801Z,102480.59
2022-09-18T20:22:41.679Z,102483.38
2022-09-18T20:25:10.350Z,102475.78
2022-09-18T20:27:39.491Z,102476.03
2022-09-18T20:30:12.642Z,102488.22
2022-09-18T20:32:40.858Z,102480.44
2022-09-18T20:35:09.998Z,102459.69
2022-09-18T20:37:37.995Z,102482.69
2022-09-18T20:40:07.353Z,102461.91
2022-09-18T20:42:35.594Z,102477.00
2022-09-18T20:45:03.745Z,102491.78
2022-09-18T20:47:35.026Z,102479.94
2022-09-18T20:50:06.676Z,102494.41
2022-09-18T20:52:36.686Z,102485.22
2022-09-18T20:55:08.744Z,102491.06
2022-09-18T20:57:37.335Z,102482.47
2022-09-18T21:00:06.456Z,102460.56
2022-09-18T21:02:36.414Z,102460.97
2022-09-18T21:05:07.442Z,102475.59
2022-09-18T21:07:35.641Z,102489.41
2022-09-18T21:10:03.651Z,102491.50
2022-09-18T21:12:35.168Z,102488.72
2022-09-18T21:15:03.708Z,102495.53
2022-09-18T21:17:32.275Z,102490.19
2022-09-18T21:20:02.272Z,102492.84
2022-09-18T21:22:31.781Z,102490.91
2022-09-18T21:24:59.919Z,102492.84
2022-09-18T21:27:30.294Z,102495.78
2022-09-18T21:29:59.173Z,102497.09
2022-09-18T21:32:27.213Z,102497.47
2022-09-18T21:34:55.309Z,102497.94
2022-09-18T21:37:24.740Z,102504.72
2022-09-18T21:39:55.897Z,102501.78
2022-09-18T21:42:25.181Z,102504.34
2022-09-18T21:44:53.306Z,102499.00
2022-09-18T21:47:21.359Z,102493.78
2022-09-18T21:49:49.422Z,102499.84
2022-09-18T21:52:17.445Z,102498.03
2022-09-18T21:54:48.915Z,102493.78
2022-09-18T21:57:18.692Z,102499.84
2022-09-18T21:59:47.698Z,102490.38
2022-09-18T22:02:17.284Z,102496.56
2022-09-18T22:04:46.050Z,102480.59
2022-09-18T22:07:30.092Z,102504.84
2022-09-18T22:10:01.215Z,102485.94
2022-09-18T22:12:29.289Z,102481.19
2022-09-18T22:14:57.492Z,102494.81
2022-09-18T22:17:27.767Z,102498.44
2022-09-18T22:19:59.500Z,102491.66
2022-09-18T22:22:29.336Z,102491.09
2022-09-18T22:25:03.154Z,102480.06
2022-09-18T22:27:31.886Z,102509.13
2022-09-18T22:30:00.718Z,102503.81
2022-09-18T22:32:29.286Z,102509.13
2022-09-18T22:34:57.630Z,102505.75
2022-09-18T22:37:26.810Z,102504.28
2022-09-18T22:39:55.421Z,102500.91
2022-09-18T22:42:25.229Z,102469.16
2022-09-18T22:44:53.409Z,102485.88
2022-09-18T22:47:21.622Z,102504.78
2022-09-18T22:49:49.766Z,102498.34
2022-09-18T22:52:17.823Z,102495.81
2022-09-18T22:54:46.139Z,102514.47
2022-09-18T22:57:14.266Z,102505.91
2022-09-18T22:59:43.783Z,102505.28
2022-09-18T23:02:12.140Z,102496.94
2022-09-18T23:04:40.564Z,102507.22
2022-09-18T23:07:09.023Z,102493.19
2022-09-18T23:09:37.430Z,102496.09
2022-09-18T23:12:06.409Z,102501.19
2022-09-18T23:14:34.760Z,102501.31
2022-09-18T23:17:04.513Z,102506.75
2022-09-18T23:19:34.548Z,102498.28
2022-09-18T23:22:03.019Z,102508.56
2022-09-18T23:24:31.907Z,102501.91
2022-09-18T23:27:00.135Z,102508.56
2022-09-18T23:29:29.364Z,102506.75
2022-09-18T23:31:59.756Z,102512.81
2022-09-18T23:34:34.945Z,102510.88
2022-09-18T23:37:03.333Z,102489.09
2022-09-18T23:39:32.797Z,102524.94
2022-09-18T23:42:01.504Z,102526.88
2022-09-18T23:44:31.279Z,102512.19
2022-09-18T23:47:00.355Z,102494.91
2022-09-18T23:49:30.161Z,102493.22
2022-09-18T23:51:59.448Z,102496.34
2022-09-18T23:54:28.759Z,102513.06
2022-09-18T23:56:56.827Z,102497.19
2022-09-18T23:59:26.286Z,102516.69
